B Gas Summit — 9HA3934 — position and weather

sailwx.info

Track history (hours):
 
Tides and Currents Weather Stations Pressure Air Temp Water Temp Dewpoint Dewpoint Depression Visibility Wind Speed Wind Dir Waves Ship Positions

B Gas Summit

Last reported at 2018-Jun-19 17:52 UTC. Time now 2018-Jun-19 18:25 UTC.
Position N 58°20' E 011°21'.

Length 95 m; draft 4.7 m.

Type: Tanker. MMSI: 256508000.

Date/timePositionNaut miles runAvg speedWind from/ knotsBaromVisibWave heightAir tempDewpointWater temp
2018-Jun-19 17:52N 58°20' E 011°21'0 0.0
2018-Jun-19 17:28N 58°20' E 011°21'0 0.0
2018-Jun-19 16:58N 58°20' E 011°21'0 0.0
2018-Jun-19 16:28N 58°20' E 011°21'0 0.0
2018-Jun-19 15:58N 58°20' E 011°21'0 0.0
2018-Jun-19 15:28N 58°20' E 011°21'0 0.0
2018-Jun-19 14:58N 58°20' E 011°21'0 0.0
2018-Jun-19 14:28N 58°20' E 011°21'0 0.0
2018-Jun-19 13:58N 58°20' E 011°21'0 0.0
2018-Jun-19 13:28N 58°20' E 011°21'0 0.0
2018-Jun-19 12:58N 58°20' E 011°21'0 0.0
2018-Jun-19 12:28N 58°20' E 011°21'0 0.0
2018-Jun-19 11:58N 58°20' E 011°21'0 0.0
2018-Jun-19 11:28N 58°20' E 011°21'0 0.0
2018-Jun-19 10:58N 58°20' E 011°21'0 0.0
2018-Jun-19 10:28N 58°20' E 011°21'0 0.0
2018-Jun-19 09:52N 58°20' E 011°21'0 0.0
2018-Jun-19 09:22N 58°20' E 011°21'0 0.0
2018-Jun-19 08:52N 58°20' E 011°21'0 0.0
2018-Jun-19 08:28N 58°20' E 011°21'0 0.0
2018-Jun-19 07:58N 58°20' E 011°21'0 0.0
2018-Jun-19 07:22N 58°20' E 011°21'0 0.1
2018-Jun-19 07:00N 58°20' E 011°21'1 2.9
2018-Jun-19 06:31N 58°19' E 011°20'4 7.4
2018-Jun-19 06:00N 58°16' E 011°15'3 5.3
2018-Jun-19 05:31N 58°14' E 011°13'5 1.9
2018-Jun-19 03:07N 58°09' E 011°11'1 7.0
2018-Jun-19 02:59N 58°08' E 011°10'  
2018-Jun-16 12:37N 58°12' E 011°14'1 0.1
2018-Jun-15 21:15N 58°12' E 011°11'512.6
2018-Jun-15 20:49N 58°09' E 011°03'813.1
2018-Jun-15 20:13N 58°05' E 010°50'33912.7
2018-Jun-14 17:26N 53°33' E 004°49'6213.9
2018-Jun-14 12:58N 52°38' E 004°01'511.1
2018-Jun-14 12:31N 52°34' E 003°57'612.6
2018-Jun-14 12:00N 52°28' E 003°54'612.5
2018-Jun-14 11:30N 52°22' E 003°52'712.3
2018-Jun-14 10:58N 52°15' E 003°53'612.4
2018-Jun-14 10:30N 52°09' E 003°54'611.7
2018-Jun-14 10:00N 52°04' E 003°53'611.7
2018-Jun-14 09:30N 51°58' E 003°50'2 4.0
2018-Jun-14 09:00N 51°56' E 003°49'0 0.0
2018-Jun-14 08:30N 51°56' E 003°49'0 0.0
2018-Jun-14 08:00N 51°56' E 003°49'0 0.2
2018-Jun-14 07:27N 51°56' E 003°49'0 0.0
2018-Jun-14 06:57N 51°56' E 003°49'0 0.0
2018-Jun-14 06:27N 51°56' E 003°49'0 0.0
2018-Jun-14 06:00N 51°56' E 003°49'0 0.0
2018-Jun-14 05:30N 51°56' E 003°49'0 0.0
2018-Jun-14 05:00N 51°56' E 003°49'0 0.0
2018-Jun-14 04:27N 51°56' E 003°49'0 0.0
2018-Jun-14 04:00N 51°56' E 003°49'0 0.0
2018-Jun-14 03:30N 51°56' E 003°49'0 0.0
2018-Jun-14 02:54N 51°56' E 003°49'0 0.0
2018-Jun-14 02:30N 51°56' E 003°49'0 0.0
2018-Jun-14 02:00N 51°56' E 003°49'0 0.0
2018-Jun-14 01:30N 51°56' E 003°49'0 0.0
2018-Jun-14 00:57N 51°56' E 003°49'0 0.0
2018-Jun-14 00:30N 51°56' E 003°49'0 0.1
2018-Jun-13 23:57N 51°56' E 003°49'0 0.1
2018-Jun-13 23:27N 51°56' E 003°49'0 0.1
2018-Jun-13 23:00N 51°56' E 003°49'0 0.0
2018-Jun-13 22:30N 51°56' E 003°49'0 0.0
2018-Jun-13 22:00N 51°56' E 003°49'0 0.0
2018-Jun-13 21:30N 51°56' E 003°49'0 0.0
2018-Jun-13 21:00N 51°56' E 003°49'0 0.0
2018-Jun-13 20:30N 51°56' E 003°49'0 0.0
2018-Jun-13 20:00N 51°56' E 003°49'0 0.0
2018-Jun-13 19:24N 51°56' E 003°49'0 0.0
2018-Jun-13 19:00N 51°56' E 003°49'0 0.0
2018-Jun-13 18:30N 51°56' E 003°49'0 0.0
2018-Jun-13 17:54N 51°56' E 003°49'0 0.1
2018-Jun-13 17:27N 51°56' E 003°49'0 0.1
2018-Jun-13 17:00N 51°56' E 003°49'0 0.1
2018-Jun-13 16:30N 51°56' E 003°49'0 0.0
2018-Jun-13 15:57N 51°56' E 003°49'0 0.0
2018-Jun-13 15:30N 51°56' E 003°49'0 0.0
2018-Jun-13 15:00N 51°56' E 003°49'0 0.0
2018-Jun-13 14:24N 51°56' E 003°49'0 0.0
2018-Jun-13 13:42N 51°56' E 003°49'0 0.0
2018-Jun-13 13:24N 51°56' E 003°49'0 0.0
2018-Jun-13 13:00N 51°56' E 003°49'0 0.0
2018-Jun-13 12:30N 51°56' E 003°49'0 0.1
2018-Jun-13 12:00N 51°56' E 003°49'0 0.1
2018-Jun-13 11:30N 51°56' E 003°49'0 0.1
2018-Jun-13 11:00N 51°56' E 003°49'0 0.0
2018-Jun-13 10:30N 51°56' E 003°49'0 0.0
2018-Jun-13 09:57N 51°56' E 003°49'0 0.0
2018-Jun-13 09:30N 51°56' E 003°49'0 0.1
2018-Jun-13 08:57N 51°56' E 003°49'0 0.0
2018-Jun-13 08:30N 51°56' E 003°49'0 0.0
2018-Jun-13 07:57N 51°56' E 003°49'0 0.0
2018-Jun-13 07:30N 51°56' E 003°49'0 0.0
2018-Jun-13 07:00N 51°56' E 003°49'0 0.0
2018-Jun-13 06:30N 51°56' E 003°49'0 0.0
2018-Jun-13 05:48N 51°56' E 003°49'0 0.0
2018-Jun-13 05:30N 51°56' E 003°49'0 0.0
2018-Jun-13 05:00N 51°56' E 003°49'0 0.0
2018-Jun-13 04:27N 51°56' E 003°49'0 0.0
2018-Jun-13 03:54N 51°56' E 003°49'0 0.1
2018-Jun-13 03:30N 51°56' E 003°49'0 0.1
2018-Jun-13 03:00N 51°56' E 003°49'0 0.0
2018-Jun-13 02:30N 51°56' E 003°49'0 0.0
2018-Jun-13 01:54N 51°56' E 003°49'0 0.0
2018-Jun-13 01:21N 51°56' E 003°49'0 0.0
2018-Jun-13 00:57N 51°56' E 003°49'0 0.1
2018-Jun-13 00:18N 51°56' E 003°49'0 0.1
2018-Jun-13 00:00N 51°56' E 003°49'0 0.1
2018-Jun-12 23:21N 51°56' E 003°49'0 0.0
2018-Jun-12 23:00N 51°56' E 003°49'0 0.0
2018-Jun-12 22:27N 51°56' E 003°49'0 0.0
2018-Jun-12 21:57N 51°56' E 003°49'0 0.0
2018-Jun-12 21:21N 51°56' E 003°49'0 0.0
2018-Jun-12 21:00N 51°56' E 003°49'0 0.0
2018-Jun-12 20:21N 51°56' E 003°49'0 0.0
2018-Jun-12 19:48N 51°56' E 003°49'0 0.0
2018-Jun-12 19:27N 51°56' E 003°49'0 0.0
2018-Jun-12 18:57N 51°56' E 003°49'0 0.0
2018-Jun-12 18:27N 51°56' E 003°49'0 0.0
2018-Jun-12 18:00N 51°56' E 003°49'0 0.0
2018-Jun-12 17:27N 51°56' E 003°49'0 0.0
2018-Jun-12 16:48N 51°56' E 003°49'0 0.0
2018-Jun-12 16:27N 51°56' E 003°49'0 0.0
2018-Jun-12 15:57N 51°56' E 003°49'0 0.0
2018-Jun-12 15:30N 51°56' E 003°49'0 0.1
2018-Jun-12 14:54N 51°56' E 003°49'0 0.0
2018-Jun-12 14:27N 51°56' E 003°49'0 0.1
2018-Jun-12 13:54N 51°56' E 003°49'0 0.0
2018-Jun-12 13:21N 51°56' E 003°49'0 0.0
2018-Jun-12 12:57N 51°56' E 003°49'0 0.0
2018-Jun-12 12:27N 51°56' E 003°49'0 0.1
2018-Jun-12 12:00N 51°56' E 003°49'0 0.2
2018-Jun-12 11:30N 51°56' E 003°49'0 0.0
2018-Jun-12 10:57N 51°56' E 003°49'0 0.0
2018-Jun-12 10:30N 51°56' E 003°49'0 0.0
2018-Jun-12 09:57N 51°56' E 003°49'0 0.0
2018-Jun-12 09:27N 51°56' E 003°49'0 0.0
2018-Jun-12 08:57N 51°56' E 003°48'0 0.0
2018-Jun-12 08:27N 51°56' E 003°49'0 0.0
2018-Jun-12 07:57N 51°56' E 003°49'0 0.0
2018-Jun-12 07:30N 51°56' E 003°49'0 0.0
2018-Jun-12 07:00N 51°56' E 003°49'0 0.0
2018-Jun-12 06:27N 51°56' E 003°49'0 0.0
2018-Jun-12 06:00N 51°56' E 003°49'0 0.0
2018-Jun-12 05:30N 51°56' E 003°49'0 0.0
2018-Jun-12 05:00N 51°56' E 003°49'0 0.0
2018-Jun-12 04:30N 51°56' E 003°49'0 0.0
2018-Jun-12 04:00N 51°56' E 003°49'0 0.0
2018-Jun-12 03:30N 51°56' E 003°49'0 0.1
2018-Jun-12 02:57N 51°56' E 003°49'0 0.2
2018-Jun-12 02:30N 51°56' E 003°49'0 0.0
2018-Jun-12 02:00N 51°56' E 003°49'0 0.0
2018-Jun-12 01:30N 51°56' E 003°49'0 0.0
2018-Jun-12 01:00N 51°56' E 003°49'0 0.0
2018-Jun-12 00:27N 51°56' E 003°49'0 0.1
2018-Jun-11 23:57N 51°56' E 003°49'0 0.1
2018-Jun-11 23:30N 51°56' E 003°49'0 0.1
2018-Jun-11 23:00N 51°56' E 003°48'0 0.0
2018-Jun-11 22:30N 51°56' E 003°48'0 0.0
2018-Jun-11 22:00N 51°56' E 003°48'0 0.0
2018-Jun-11 21:30N 51°56' E 003°49'0 0.0
2018-Jun-11 21:00N 51°56' E 003°49'0 0.0
2018-Jun-11 20:30N 51°56' E 003°49'0 0.0
2018-Jun-11 20:00N 51°56' E 003°49'0 0.0
2018-Jun-11 19:24N 51°56' E 003°49'0 0.0
2018-Jun-11 18:57N 51°56' E 003°49'0 0.0
2018-Jun-11 18:27N 51°56' E 003°49'0 0.0
2018-Jun-11 17:51N 51°56' E 003°49'0 0.0
2018-Jun-11 17:18N 51°56' E 003°49'0 0.0
2018-Jun-11 17:00N 51°56' E 003°49'0 0.0
2018-Jun-11 16:27N 51°56' E 003°49'0 0.0
2018-Jun-11 15:51N 51°56' E 003°49'0 0.0
2018-Jun-11 15:30N 51°56' E 003°49'0 0.0
2018-Jun-11 14:54N 51°56' E 003°49'0 0.0
2018-Jun-11 14:30N 51°56' E 003°49'0 0.2
2018-Jun-11 14:00N 51°56' E 003°49'0 0.0
2018-Jun-11 13:24N 51°56' E 003°49'0 0.0
2018-Jun-11 13:00N 51°56' E 003°49'0 0.0
2018-Jun-11 12:30N 51°56' E 003°49'0 0.0
2018-Jun-11 12:00N 51°56' E 003°49'0 0.0
2018-Jun-11 11:30N 51°56' E 003°49'0 0.0
2018-Jun-11 11:00N 51°56' E 003°49'0 0.2
2018-Jun-11 10:30N 51°56' E 003°49'3 5.0
2018-Jun-11 10:00N 51°59' E 003°48'5 9.2
2018-Jun-11 09:30N 52°02' E 003°54'5 9.8
2018-Jun-11 09:00N 52°00' E 004°01'611.8
2018-Jun-11 08:30N 51°57' E 004°10'611.5
2018-Jun-11 08:00N 51°54' E 004°17'4 9.0
2018-Jun-11 07:30N 51°51' E 004°22'5 9.6
2018-Jun-11 07:00N 51°50' E 004°30'5 9.2
2018-Jun-11 06:31N 51°48' E 004°36'510.0
2018-Jun-11 06:00N 51°43' E 004°37'2 4.9
2018-Jun-11 05:30N 51°42' E 004°35'1 1.2
2018-Jun-11 05:00N 51°41' E 004°34'0 0.0
2018-Jun-09 23:08N 51°42' E 004°34'  
Track history (hours):
 
Tides and Currents Weather Stations Pressure Air Temp Water Temp Dewpoint Dewpoint Depression Visibility Wind Speed Wind Dir Waves Ship Positions

B Gas Summit

Last reported at 2018-Jun-19 17:52 UTC. Time now 2018-Jun-19 18:25 UTC.
Position N 58°20' E 011°21'.

Length 95 m; draft 4.7 m.

Type: Tanker. MMSI: 256508000.

Date/timePositionNaut miles runAvg speedWind from/ knotsBaromVisibWave heightAir tempDewpointWater temp
2018-Jun-19 17:52N 58°20' E 011°21'0 0.0
2018-Jun-19 17:28N 58°20' E 011°21'0 0.0
2018-Jun-19 16:58N 58°20' E 011°21'0 0.0
2018-Jun-19 16:28N 58°20' E 011°21'0 0.0
2018-Jun-19 15:58N 58°20' E 011°21'0 0.0
2018-Jun-19 15:28N 58°20' E 011°21'0 0.0
2018-Jun-19 14:58N 58°20' E 011°21'0 0.0
2018-Jun-19 14:28N 58°20' E 011°21'0 0.0
2018-Jun-19 13:58N 58°20' E 011°21'0 0.0
2018-Jun-19 13:28N 58°20' E 011°21'0 0.0
2018-Jun-19 12:58N 58°20' E 011°21'0 0.0
2018-Jun-19 12:28N 58°20' E 011°21'0 0.0
2018-Jun-19 11:58N 58°20' E 011°21'0 0.0
2018-Jun-19 11:28N 58°20' E 011°21'0 0.0
2018-Jun-19 10:58N 58°20' E 011°21'0 0.0
2018-Jun-19 10:28N 58°20' E 011°21'0 0.0
2018-Jun-19 09:52N 58°20' E 011°21'0 0.0
2018-Jun-19 09:22N 58°20' E 011°21'0 0.0
2018-Jun-19 08:52N 58°20' E 011°21'0 0.0
2018-Jun-19 08:28N 58°20' E 011°21'0 0.0
2018-Jun-19 07:58N 58°20' E 011°21'0 0.0
2018-Jun-19 07:22N 58°20' E 011°21'0 0.1
2018-Jun-19 07:00N 58°20' E 011°21'1 2.9
2018-Jun-19 06:31N 58°19' E 011°20'4 7.4
2018-Jun-19 06:00N 58°16' E 011°15'3 5.3
2018-Jun-19 05:31N 58°14' E 011°13'5 1.9
2018-Jun-19 03:07N 58°09' E 011°11'1 7.0
2018-Jun-19 02:59N 58°08' E 011°10'  
2018-Jun-16 12:37N 58°12' E 011°14'1 0.1
2018-Jun-15 21:15N 58°12' E 011°11'512.6
2018-Jun-15 20:49N 58°09' E 011°03'813.1
2018-Jun-15 20:13N 58°05' E 010°50'33912.7
2018-Jun-14 17:26N 53°33' E 004°49'6213.9
2018-Jun-14 12:58N 52°38' E 004°01'511.1
2018-Jun-14 12:31N 52°34' E 003°57'612.6
2018-Jun-14 12:00N 52°28' E 003°54'612.5
2018-Jun-14 11:30N 52°22' E 003°52'712.3
2018-Jun-14 10:58N 52°15' E 003°53'612.4
2018-Jun-14 10:30N 52°09' E 003°54'611.7
2018-Jun-14 10:00N 52°04' E 003°53'611.7
2018-Jun-14 09:30N 51°58' E 003°50'2 4.0
2018-Jun-14 09:00N 51°56' E 003°49'0 0.0
2018-Jun-14 08:30N 51°56' E 003°49'0 0.0
2018-Jun-14 08:00N 51°56' E 003°49'0 0.2
2018-Jun-14 07:27N 51°56' E 003°49'0 0.0
2018-Jun-14 06:57N 51°56' E 003°49'0 0.0
2018-Jun-14 06:27N 51°56' E 003°49'0 0.0
2018-Jun-14 06:00N 51°56' E 003°49'0 0.0
2018-Jun-14 05:30N 51°56' E 003°49'0 0.0
2018-Jun-14 05:00N 51°56' E 003°49'0 0.0
2018-Jun-14 04:27N 51°56' E 003°49'0 0.0
2018-Jun-14 04:00N 51°56' E 003°49'0 0.0
2018-Jun-14 03:30N 51°56' E 003°49'0 0.0
2018-Jun-14 02:54N 51°56' E 003°49'0 0.0
2018-Jun-14 02:30N 51°56' E 003°49'0 0.0
2018-Jun-14 02:00N 51°56' E 003°49'0 0.0
2018-Jun-14 01:30N 51°56' E 003°49'0 0.0
2018-Jun-14 00:57N 51°56' E 003°49'0 0.0
2018-Jun-14 00:30N 51°56' E 003°49'0 0.1
2018-Jun-13 23:57N 51°56' E 003°49'0 0.1
2018-Jun-13 23:27N 51°56' E 003°49'0 0.1
2018-Jun-13 23:00N 51°56' E 003°49'0 0.0
2018-Jun-13 22:30N 51°56' E 003°49'0 0.0
2018-Jun-13 22:00N 51°56' E 003°49'0 0.0
2018-Jun-13 21:30N 51°56' E 003°49'0 0.0
2018-Jun-13 21:00N 51°56' E 003°49'0 0.0
2018-Jun-13 20:30N 51°56' E 003°49'0 0.0
2018-Jun-13 20:00N 51°56' E 003°49'0 0.0
2018-Jun-13 19:24N 51°56' E 003°49'0 0.0
2018-Jun-13 19:00N 51°56' E 003°49'0 0.0
2018-Jun-13 18:30N 51°56' E 003°49'0 0.0
2018-Jun-13 17:54N 51°56' E 003°49'0 0.1
2018-Jun-13 17:27N 51°56' E 003°49'0 0.1
2018-Jun-13 17:00N 51°56' E 003°49'0 0.1
2018-Jun-13 16:30N 51°56' E 003°49'0 0.0
2018-Jun-13 15:57N 51°56' E 003°49'0 0.0
2018-Jun-13 15:30N 51°56' E 003°49'0 0.0
2018-Jun-13 15:00N 51°56' E 003°49'0 0.0
2018-Jun-13 14:24N 51°56' E 003°49'0 0.0
2018-Jun-13 13:42N 51°56' E 003°49'0 0.0
2018-Jun-13 13:24N 51°56' E 003°49'0 0.0
2018-Jun-13 13:00N 51°56' E 003°49'0 0.0
2018-Jun-13 12:30N 51°56' E 003°49'0 0.1
2018-Jun-13 12:00N 51°56' E 003°49'0 0.1
2018-Jun-13 11:30N 51°56' E 003°49'0 0.1
2018-Jun-13 11:00N 51°56' E 003°49'0 0.0
2018-Jun-13 10:30N 51°56' E 003°49'0 0.0
2018-Jun-13 09:57N 51°56' E 003°49'0 0.0
2018-Jun-13 09:30N 51°56' E 003°49'0 0.1
2018-Jun-13 08:57N 51°56' E 003°49'0 0.0
2018-Jun-13 08:30N 51°56' E 003°49'0 0.0
2018-Jun-13 07:57N 51°56' E 003°49'0 0.0
2018-Jun-13 07:30N 51°56' E 003°49'0 0.0
2018-Jun-13 07:00N 51°56' E 003°49'0 0.0
2018-Jun-13 06:30N 51°56' E 003°49'0 0.0
2018-Jun-13 05:48N 51°56' E 003°49'0 0.0
2018-Jun-13 05:30N 51°56' E 003°49'0 0.0
2018-Jun-13 05:00N 51°56' E 003°49'0 0.0
2018-Jun-13 04:27N 51°56' E 003°49'0 0.0
2018-Jun-13 03:54N 51°56' E 003°49'0 0.1
2018-Jun-13 03:30N 51°56' E 003°49'0 0.1
2018-Jun-13 03:00N 51°56' E 003°49'0 0.0
2018-Jun-13 02:30N 51°56' E 003°49'0 0.0
2018-Jun-13 01:54N 51°56' E 003°49'0 0.0
2018-Jun-13 01:21N 51°56' E 003°49'0 0.0
2018-Jun-13 00:57N 51°56' E 003°49'0 0.1
2018-Jun-13 00:18N 51°56' E 003°49'0 0.1
2018-Jun-13 00:00N 51°56' E 003°49'0 0.1
2018-Jun-12 23:21N 51°56' E 003°49'0 0.0
2018-Jun-12 23:00N 51°56' E 003°49'0 0.0
2018-Jun-12 22:27N 51°56' E 003°49'0 0.0
2018-Jun-12 21:57N 51°56' E 003°49'0 0.0
2018-Jun-12 21:21N 51°56' E 003°49'0 0.0
2018-Jun-12 21:00N 51°56' E 003°49'0 0.0
2018-Jun-12 20:21N 51°56' E 003°49'0 0.0
2018-Jun-12 19:48N 51°56' E 003°49'0 0.0
2018-Jun-12 19:27N 51°56' E 003°49'0 0.0
2018-Jun-12 18:57N 51°56' E 003°49'0 0.0
2018-Jun-12 18:27N 51°56' E 003°49'0 0.0
2018-Jun-12 18:00N 51°56' E 003°49'0 0.0
2018-Jun-12 17:27N 51°56' E 003°49'0 0.0
2018-Jun-12 16:48N 51°56' E 003°49'0 0.0
2018-Jun-12 16:27N 51°56' E 003°49'0 0.0
2018-Jun-12 15:57N 51°56' E 003°49'0 0.0
2018-Jun-12 15:30N 51°56' E 003°49'0 0.1
2018-Jun-12 14:54N 51°56' E 003°49'0 0.0
2018-Jun-12 14:27N 51°56' E 003°49'0 0.1
2018-Jun-12 13:54N 51°56' E 003°49'0 0.0
2018-Jun-12 13:21N 51°56' E 003°49'0 0.0
2018-Jun-12 12:57N 51°56' E 003°49'0 0.0
2018-Jun-12 12:27N 51°56' E 003°49'0 0.1
2018-Jun-12 12:00N 51°56' E 003°49'0 0.2
2018-Jun-12 11:30N 51°56' E 003°49'0 0.0
2018-Jun-12 10:57N 51°56' E 003°49'0 0.0
2018-Jun-12 10:30N 51°56' E 003°49'0 0.0
2018-Jun-12 09:57N 51°56' E 003°49'0 0.0
2018-Jun-12 09:27N 51°56' E 003°49'0 0.0
2018-Jun-12 08:57N 51°56' E 003°48'0 0.0
2018-Jun-12 08:27N 51°56' E 003°49'0 0.0
2018-Jun-12 07:57N 51°56' E 003°49'0 0.0
2018-Jun-12 07:30N 51°56' E 003°49'0 0.0
2018-Jun-12 07:00N 51°56' E 003°49'0 0.0
2018-Jun-12 06:27N 51°56' E 003°49'0 0.0
2018-Jun-12 06:00N 51°56' E 003°49'0 0.0
2018-Jun-12 05:30N 51°56' E 003°49'0 0.0
2018-Jun-12 05:00N 51°56' E 003°49'0 0.0
2018-Jun-12 04:30N 51°56' E 003°49'0 0.0
2018-Jun-12 04:00N 51°56' E 003°49'0 0.0
2018-Jun-12 03:30N 51°56' E 003°49'0 0.1
2018-Jun-12 02:57N 51°56' E 003°49'0 0.2
2018-Jun-12 02:30N 51°56' E 003°49'0 0.0
2018-Jun-12 02:00N 51°56' E 003°49'0 0.0
2018-Jun-12 01:30N 51°56' E 003°49'0 0.0
2018-Jun-12 01:00N 51°56' E 003°49'0 0.0
2018-Jun-12 00:27N 51°56' E 003°49'0 0.1
2018-Jun-11 23:57N 51°56' E 003°49'0 0.1
2018-Jun-11 23:30N 51°56' E 003°49'0 0.1
2018-Jun-11 23:00N 51°56' E 003°48'0 0.0
2018-Jun-11 22:30N 51°56' E 003°48'0 0.0
2018-Jun-11 22:00N 51°56' E 003°48'0 0.0
2018-Jun-11 21:30N 51°56' E 003°49'0 0.0
2018-Jun-11 21:00N 51°56' E 003°49'0 0.0
2018-Jun-11 20:30N 51°56' E 003°49'0 0.0
2018-Jun-11 20:00N 51°56' E 003°49'0 0.0
2018-Jun-11 19:24N 51°56' E 003°49'0 0.0
2018-Jun-11 18:57N 51°56' E 003°49'0 0.0
2018-Jun-11 18:27N 51°56' E 003°49'0 0.0
2018-Jun-11 17:51N 51°56' E 003°49'0 0.0
2018-Jun-11 17:18N 51°56' E 003°49'0 0.0
2018-Jun-11 17:00N 51°56' E 003°49'0 0.0
2018-Jun-11 16:27N 51°56' E 003°49'0 0.0
2018-Jun-11 15:51N 51°56' E 003°49'0 0.0
2018-Jun-11 15:30N 51°56' E 003°49'0 0.0
2018-Jun-11 14:54N 51°56' E 003°49'0 0.0
2018-Jun-11 14:30N 51°56' E 003°49'0 0.2
2018-Jun-11 14:00N 51°56' E 003°49'0 0.0
2018-Jun-11 13:24N 51°56' E 003°49'0 0.0
2018-Jun-11 13:00N 51°56' E 003°49'0 0.0
2018-Jun-11 12:30N 51°56' E 003°49'0 0.0
2018-Jun-11 12:00N 51°56' E 003°49'0 0.0
2018-Jun-11 11:30N 51°56' E 003°49'0 0.0
2018-Jun-11 11:00N 51°56' E 003°49'0 0.2
2018-Jun-11 10:30N 51°56' E 003°49'3 5.0
2018-Jun-11 10:00N 51°59' E 003°48'5 9.2
2018-Jun-11 09:30N 52°02' E 003°54'5 9.8
2018-Jun-11 09:00N 52°00' E 004°01'611.8
2018-Jun-11 08:30N 51°57' E 004°10'611.5
2018-Jun-11 08:00N 51°54' E 004°17'4 9.0
2018-Jun-11 07:30N 51°51' E 004°22'5 9.6
2018-Jun-11 07:00N 51°50' E 004°30'5 9.2
2018-Jun-11 06:31N 51°48' E 004°36'510.0
2018-Jun-11 06:00N 51°43' E 004°37'2 4.9
2018-Jun-11 05:30N 51°42' E 004°35'1 1.2
2018-Jun-11 05:00N 51°41' E 004°34'0 0.0
2018-Jun-09 23:08N 51°42' E 004°34'  

Dump ship's entire track history